sensor_id;sensor_type;location;lat;lon;timestamp;temperature;humidity
83828;DHT22;73850;48.870;12.562;2023-11-18T00:00:25;3.50;86.80
83828;DHT22;73850;48.870;12.562;2023-11-18T00:02:51;3.50;86.50
83828;DHT22;73850;48.870;12.562;2023-11-18T00:05:17;3.50;86.50
83828;DHT22;73850;48.870;12.562;2023-11-18T00:07:43;3.50;86.30
83828;DHT22;73850;48.870;12.562;2023-11-18T00:10:09;3.50;86.20
83828;DHT22;73850;48.870;12.562;2023-11-18T00:12:36;3.50;86.70
83828;DHT22;73850;48.870;12.562;2023-11-18T00:15:05;3.50;86.20
83828;DHT22;73850;48.870;12.562;2023-11-18T00:17:34;3.50;86.20
83828;DHT22;73850;48.870;12.562;2023-11-18T00:19:59;3.50;85.90
83828;DHT22;73850;48.870;12.562;2023-11-18T00:22:25;3.50;85.50
83828;DHT22;73850;48.870;12.562;2023-11-18T00:24:51;3.50;85.30
83828;DHT22;73850;48.870;12.562;2023-11-18T00:27:17;3.40;85.30
83828;DHT22;73850;48.870;12.562;2023-11-18T00:29:43;3.40;85.20
83828;DHT22;73850;48.870;12.562;2023-11-18T00:32:11;3.40;85.30
83828;DHT22;73850;48.870;12.562;2023-11-18T00:34:37;3.40;85.10
83828;DHT22;73850;48.870;12.562;2023-11-18T00:37:03;3.50;85.10
83828;DHT22;73850;48.870;12.562;2023-11-18T00:39:29;3.40;85.10
83828;DHT22;73850;48.870;12.562;2023-11-18T00:41:54;3.40;85.40
83828;DHT22;73850;48.870;12.562;2023-11-18T00:44:21;3.30;85.50
83828;DHT22;73850;48.870;12.562;2023-11-18T00:46:47;3.30;85.80
83828;DHT22;73850;48.870;12.562;2023-11-18T00:49:13;3.30;86.00
83828;DHT22;73850;48.870;12.562;2023-11-18T00:51:38;3.30;86.20
83828;DHT22;73850;48.870;12.562;2023-11-18T00:54:04;3.30;86.10
83828;DHT22;73850;48.870;12.562;2023-11-18T00:56:33;3.30;86.00
83828;DHT22;73850;48.870;12.562;2023-11-18T00:58:59;3.40;85.90
83828;DHT22;73850;48.870;12.562;2023-11-18T01:01:27;3.30;85.80
83828;DHT22;73850;48.870;12.562;2023-11-18T01:03:53;3.40;85.90
83828;DHT22;73850;48.870;12.562;2023-11-18T01:06:19;3.40;85.90
83828;DHT22;73850;48.870;12.562;2023-11-18T01:08:47;3.40;85.20
83828;DHT22;73850;48.870;12.562;2023-11-18T01:11:19;3.50;84.70
83828;DHT22;73850;48.870;12.562;2023-11-18T01:13:49;3.40;84.90
83828;DHT22;73850;48.870;12.562;2023-11-18T01:16:15;3.40;85.10
83828;DHT22;73850;48.870;12.562;2023-11-18T01:18:41;3.40;85.30
83828;DHT22;73850;48.870;12.562;2023-11-18T01:21:07;3.40;85.40
83828;DHT22;73850;48.870;12.562;2023-11-18T01:23:35;3.30;85.40
83828;DHT22;73850;48.870;12.562;2023-11-18T01:26:02;3.30;85.50
83828;DHT22;73850;48.870;12.562;2023-11-18T01:28:31;3.20;85.60
83828;DHT22;73850;48.870;12.562;2023-11-18T01:30:58;3.20;85.80
83828;DHT22;73850;48.870;12.562;2023-11-18T01:33:24;3.10;86.00
83828;DHT22;73850;48.870;12.562;2023-11-18T01:35:50;3.10;86.30
83828;DHT22;73850;48.870;12.562;2023-11-18T01:38:16;3.10;86.70
83828;DHT22;73850;48.870;12.562;2023-11-18T01:40:41;3.00;86.70
83828;DHT22;73850;48.870;12.562;2023-11-18T01:43:09;3.00;86.90
83828;DHT22;73850;48.870;12.562;2023-11-18T01:45:37;3.00;87.00
83828;DHT22;73850;48.870;12.562;2023-11-18T01:48:04;3.00;87.10
83828;DHT22;73850;48.870;12.562;2023-11-18T01:50:31;2.90;87.10
83828;DHT22;73850;48.870;12.562;2023-11-18T01:52:56;2.90;87.30
83828;DHT22;73850;48.870;12.562;2023-11-18T01:55:22;2.80;87.50
83828;DHT22;73850;48.870;12.562;2023-11-18T01:57:48;3.00;89.70
83828;DHT22;73850;48.870;12.562;2023-11-18T02:00:16;3.00;89.00
83828;DHT22;73850;48.870;12.562;2023-11-18T02:02:43;3.10;88.60
83828;DHT22;73850;48.870;12.562;2023-11-18T02:05:09;3.10;87.90
83828;DHT22;73850;48.870;12.562;2023-11-18T02:07:38;3.10;87.60
83828;DHT22;73850;48.870;12.562;2023-11-18T02:10:04;3.10;87.30
83828;DHT22;73850;48.870;12.562;2023-11-18T02:13:18;3.10;86.90
83828;DHT22;73850;48.870;12.562;2023-11-18T02:15:36;3.10;86.70
83828;DHT22;73850;48.870;12.562;2023-11-18T02:18:03;3.10;86.70
83828;DHT22;73850;48.870;12.562;2023-11-18T02:20:31;3.10;86.30
83828;DHT22;73850;48.870;12.562;2023-11-18T02:22:58;3.10;86.20
83828;DHT22;73850;48.870;12.562;2023-11-18T02:25:24;3.10;86.00
83828;DHT22;73850;48.870;12.562;2023-11-18T02:27:52;3.10;85.20
83828;DHT22;73850;48.870;12.562;2023-11-18T02:30:19;3.10;84.80
83828;DHT22;73850;48.870;12.562;2023-11-18T02:32:57;3.10;84.30
83828;DHT22;73850;48.870;12.562;2023-11-18T02:35:36;3.00;83.80
83828;DHT22;73850;48.870;12.562;2023-11-18T02:38:03;3.00;83.30
83828;DHT22;73850;48.870;12.562;2023-11-18T02:40:40;3.00;83.30
83828;DHT22;73850;48.870;12.562;2023-11-18T02:43:09;3.00;83.10
83828;DHT22;73850;48.870;12.562;2023-11-18T02:45:36;2.90;83.40
83828;DHT22;73850;48.870;12.562;2023-11-18T02:48:06;2.90;83.70
83828;DHT22;73850;48.870;12.562;2023-11-18T02:50:32;2.90;84.20
83828;DHT22;73850;48.870;12.562;2023-11-18T02:52:58;2.90;84.20
83828;DHT22;73850;48.870;12.562;2023-11-18T02:55:24;2.90;84.20
83828;DHT22;73850;48.870;12.562;2023-11-18T02:57:50;2.90;84.20
83828;DHT22;73850;48.870;12.562;2023-11-18T03:00:19;2.90;84.10
83828;DHT22;73850;48.870;12.562;2023-11-18T03:02:48;2.90;84.40
83828;DHT22;73850;48.870;12.562;2023-11-18T03:05:14;3.00;84.10
83828;DHT22;73850;48.870;12.562;2023-11-18T03:07:44;2.90;84.00
83828;DHT22;73850;48.870;12.562;2023-11-18T03:10:15;3.00;84.20
83828;DHT22;73850;48.870;12.562;2023-11-18T03:12:53;3.00;84.00
83828;DHT22;73850;48.870;12.562;2023-11-18T03:15:20;3.00;83.90
83828;DHT22;73850;48.870;12.562;2023-11-18T03:17:47;3.00;83.90
83828;DHT22;73850;48.870;12.562;2023-11-18T03:20:19;3.10;83.90
83828;DHT22;73850;48.870;12.562;2023-11-18T03:22:46;3.10;83.80
83828;DHT22;73850;48.870;12.562;2023-11-18T03:25:13;3.10;83.80
83828;DHT22;73850;48.870;12.562;2023-11-18T03:27:39;3.10;83.80
83828;DHT22;73850;48.870;12.562;2023-11-18T03:30:05;3.10;83.70
83828;DHT22;73850;48.870;12.562;2023-11-18T03:32:32;3.10;83.60
83828;DHT22;73850;48.870;12.562;2023-11-18T03:34:58;3.10;83.40
83828;DHT22;73850;48.870;12.562;2023-11-18T03:37:26;3.10;83.50
83828;DHT22;73850;48.870;12.562;2023-11-18T03:39:52;3.10;83.30
83828;DHT22;73850;48.870;12.562;2023-11-18T03:42:18;3.10;83.40
83828;DHT22;73850;48.870;12.562;2023-11-18T03:44:44;3.10;83.50
83828;DHT22;73850;48.870;12.562;2023-11-18T03:47:13;3.20;83.10
83828;DHT22;73850;48.870;12.562;2023-11-18T03:49:40;3.10;82.00
83828;DHT22;73850;48.870;12.562;2023-11-18T03:52:07;3.20;81.40
83828;DHT22;73850;48.870;12.562;2023-11-18T03:54:33;3.10;81.20
83828;DHT22;73850;48.870;12.562;2023-11-18T03:56:59;3.20;81.40
83828;DHT22;73850;48.870;12.562;2023-11-18T03:59:25;3.20;80.90
83828;DHT22;73850;48.870;12.562;2023-11-18T04:01:51;3.10;80.80
83828;DHT22;73850;48.870;12.562;2023-11-18T04:04:17;3.20;81.10
83828;DHT22;73850;48.870;12.562;2023-11-18T04:06:43;3.20;81.20
83828;DHT22;73850;48.870;12.562;2023-11-18T04:09:10;3.20;81.40
83828;DHT22;73850;48.870;12.562;2023-11-18T04:11:36;3.10;81.20
83828;DHT22;73850;48.870;12.562;2023-11-18T04:14:02;3.10;81.20
83828;DHT22;73850;48.870;12.562;2023-11-18T04:16:30;3.10;81.20
83828;DHT22;73850;48.870;12.562;2023-11-18T04:18:56;3.10;81.40
83828;DHT22;73850;48.870;12.562;2023-11-18T04:21:22;3.10;81.60
83828;DHT22;73850;48.870;12.562;2023-11-18T04:23:47;3.00;82.10
83828;DHT22;73850;48.870;12.562;2023-11-18T04:26:13;3.00;82.30
83828;DHT22;73850;48.870;12.562;2023-11-18T04:28:39;2.90;82.60
83828;DHT22;73850;48.870;12.562;2023-11-18T04:31:05;2.80;83.00
83828;DHT22;73850;48.870;12.562;2023-11-18T04:33:31;2.70;83.30
83828;DHT22;73850;48.870;12.562;2023-11-18T04:35:57;2.60;83.70
83828;DHT22;73850;48.870;12.562;2023-11-18T04:38:23;2.40;84.40
83828;DHT22;73850;48.870;12.562;2023-11-18T04:40:49;2.20;85.00
83828;DHT22;73850;48.870;12.562;2023-11-18T04:43:15;2.10;85.60
83828;DHT22;73850;48.870;12.562;2023-11-18T04:45:44;1.90;85.80
83828;DHT22;73850;48.870;12.562;2023-11-18T04:48:11;1.70;86.30
83828;DHT22;73850;48.870;12.562;2023-11-18T04:50:41;1.60;87.00
83828;DHT22;73850;48.870;12.562;2023-11-18T04:53:07;1.40;87.70
83828;DHT22;73850;48.870;12.562;2023-11-18T04:55:34;1.40;88.30
83828;DHT22;73850;48.870;12.562;2023-11-18T04:58:00;1.30;88.40
83828;DHT22;73850;48.870;12.562;2023-11-18T05:00:26;1.20;88.70
83828;DHT22;73850;48.870;12.562;2023-11-18T05:02:53;1.20;88.90
83828;DHT22;73850;48.870;12.562;2023-11-18T05:05:19;1.10;89.00
83828;DHT22;73850;48.870;12.562;2023-11-18T05:07:45;1.00;89.40
83828;DHT22;73850;48.870;12.562;2023-11-18T05:10:10;1.00;90.00
83828;DHT22;73850;48.870;12.562;2023-11-18T05:12:37;1.00;90.30
83828;DHT22;73850;48.870;12.562;2023-11-18T05:15:04;1.00;90.60
83828;DHT22;73850;48.870;12.562;2023-11-18T05:17:31;1.10;91.40
83828;DHT22;73850;48.870;12.562;2023-11-18T05:19:57;1.20;91.70
83828;DHT22;73850;48.870;12.562;2023-11-18T05:22:23;1.20;91.50
83828;DHT22;73850;48.870;12.562;2023-11-18T05:24:48;1.10;91.30
83828;DHT22;73850;48.870;12.562;2023-11-18T05:27:14;1.00;91.10
83828;DHT22;73850;48.870;12.562;2023-11-18T05:29:40;1.00;90.90
83828;DHT22;73850;48.870;12.562;2023-11-18T05:32:13;0.90;90.90
83828;DHT22;73850;48.870;12.562;2023-11-18T05:34:38;0.90;90.70
83828;DHT22;73850;48.870;12.562;2023-11-18T05:37:04;0.80;90.30
83828;DHT22;73850;48.870;12.562;2023-11-18T05:39:30;0.70;90.10
83828;DHT22;73850;48.870;12.562;2023-11-18T05:41:57;0.60;90.10
83828;DHT22;73850;48.870;12.562;2023-11-18T05:44:23;0.50;90.10
83828;DHT22;73850;48.870;12.562;2023-11-18T05:46:58;0.40;90.10
83828;DHT22;73850;48.870;12.562;2023-11-18T05:49:24;0.40;90.10
83828;DHT22;73850;48.870;12.562;2023-11-18T05:51:50;0.30;90.10
83828;DHT22;73850;48.870;12.562;2023-11-18T05:54:17;0.30;90.40
83828;DHT22;73850;48.870;12.562;2023-11-18T05:56:43;0.20;90.40
83828;DHT22;73850;48.870;12.562;2023-11-18T05:59:09;0.20;90.40
83828;DHT22;73850;48.870;12.562;2023-11-18T06:01:36;0.20;90.90
83828;DHT22;73850;48.870;12.562;2023-11-18T06:04:05;0.20;91.00
83828;DHT22;73850;48.870;12.562;2023-11-18T06:06:34;0.20;90.80
83828;DHT22;73850;48.870;12.562;2023-11-18T06:08:59;0.20;91.10
83828;DHT22;73850;48.870;12.562;2023-11-18T06:11:30;0.20;91.20
83828;DHT22;73850;48.870;12.562;2023-11-18T06:13:57;0.20;91.20
83828;DHT22;73850;48.870;12.562;2023-11-18T06:16:24;0.20;91.40
83828;DHT22;73850;48.870;12.562;2023-11-18T06:18:51;0.20;91.70
83828;DHT22;73850;48.870;12.562;2023-11-18T06:21:18;0.20;91.70
83828;DHT22;73850;48.870;12.562;2023-11-18T06:23:46;0.20;91.70
83828;DHT22;73850;48.870;12.562;2023-11-18T06:26:12;0.30;92.10
83828;DHT22;73850;48.870;12.562;2023-11-18T06:28:40;0.40;92.40
83828;DHT22;73850;48.870;12.562;2023-11-18T06:31:06;0.40;92.30
83828;DHT22;73850;48.870;12.562;2023-11-18T06:33:44;0.40;92.40
83828;DHT22;73850;48.870;12.562;2023-11-18T06:38:39;0.70;92.40
83828;DHT22;73850;48.870;12.562;2023-11-18T06:41:06;0.70;92.20
83828;DHT22;73850;48.870;12.562;2023-11-18T06:43:36;0.70;92.50
83828;DHT22;73850;48.870;12.562;2023-11-18T06:46:21;0.70;92.70
83828;DHT22;73850;48.870;12.562;2023-11-18T06:48:51;0.90;93.50
83828;DHT22;73850;48.870;12.562;2023-11-18T06:51:24;1.00;94.10
83828;DHT22;73850;48.870;12.562;2023-11-18T06:53:53;1.20;94.20
83828;DHT22;73850;48.870;12.562;2023-11-18T06:56:27;1.20;94.30
83828;DHT22;73850;48.870;12.562;2023-11-18T06:58:53;1.30;94.20
83828;DHT22;73850;48.870;12.562;2023-11-18T07:01:19;1.30;93.70
83828;DHT22;73850;48.870;12.562;2023-11-18T07:03:46;1.40;93.80
83828;DHT22;73850;48.870;12.562;2023-11-18T07:06:17;1.50;93.60
83828;DHT22;73850;48.870;12.562;2023-11-18T07:08:48;1.60;93.90
83828;DHT22;73850;48.870;12.562;2023-11-18T07:11:15;1.70;94.00
83828;DHT22;73850;48.870;12.562;2023-11-18T07:13:41;1.80;94.50
83828;DHT22;73850;48.870;12.562;2023-11-18T07:16:07;1.90;94.10
83828;DHT22;73850;48.870;12.562;2023-11-18T07:18:38;1.90;93.50
83828;DHT22;73850;48.870;12.562;2023-11-18T07:21:04;2.00;93.50
83828;DHT22;73850;48.870;12.562;2023-11-18T07:23:34;2.10;93.10
83828;DHT22;73850;48.870;12.562;2023-11-18T07:26:00;2.20;93.40
83828;DHT22;73850;48.870;12.562;2023-11-18T07:28:26;2.30;93.50
83828;DHT22;73850;48.870;12.562;2023-11-18T07:30:53;2.30;92.90
83828;DHT22;73850;48.870;12.562;2023-11-18T07:33:19;2.40;92.00
83828;DHT22;73850;48.870;12.562;2023-11-18T07:35:46;2.40;91.20
83828;DHT22;73850;48.870;12.562;2023-11-18T07:38:17;2.40;90.90
83828;DHT22;73850;48.870;12.562;2023-11-18T07:40:45;2.50;91.70
83828;DHT22;73850;48.870;12.562;2023-11-18T07:43:12;2.60;91.80
83828;DHT22;73850;48.870;12.562;2023-11-18T07:45:38;2.80;90.10
83828;DHT22;73850;48.870;12.562;2023-11-18T07:48:10;2.90;89.80
83828;DHT22;73850;48.870;12.562;2023-11-18T07:50:42;3.00;89.50
83828;DHT22;73850;48.870;12.562;2023-11-18T07:53:13;3.10;88.90
83828;DHT22;73850;48.870;12.562;2023-11-18T07:55:39;3.20;87.80
83828;DHT22;73850;48.870;12.562;2023-11-18T07:58:09;3.30;86.70
83828;DHT22;73850;48.870;12.562;2023-11-18T08:00:42;3.30;85.10
83828;DHT22;73850;48.870;12.562;2023-11-18T08:03:09;3.40;85.70
83828;DHT22;73850;48.870;12.562;2023-11-18T08:05:44;3.40;83.90
83828;DHT22;73850;48.870;12.562;2023-11-18T08:08:13;3.60;84.10
83828;DHT22;73850;48.870;12.562;2023-11-18T08:10:40;3.70;82.70
83828;DHT22;73850;48.870;12.562;2023-11-18T08:13:07;3.90;82.30
83828;DHT22;73850;48.870;12.562;2023-11-18T08:15:43;4.00;81.80
83828;DHT22;73850;48.870;12.562;2023-11-18T08:18:11;4.00;80.50
83828;DHT22;73850;48.870;12.562;2023-11-18T08:20:38;4.20;79.90
83828;DHT22;73850;48.870;12.562;2023-11-18T08:23:04;4.30;79.60
83828;DHT22;73850;48.870;12.562;2023-11-18T08:25:34;4.50;78.40
83828;DHT22;73850;48.870;12.562;2023-11-18T08:28:01;4.50;77.50
83828;DHT22;73850;48.870;12.562;2023-11-18T08:30:27;4.50;78.00
83828;DHT22;73850;48.870;12.562;2023-11-18T08:32:53;4.70;78.60
83828;DHT22;73850;48.870;12.562;2023-11-18T08:35:18;4.80;78.00
83828;DHT22;73850;48.870;12.562;2023-11-18T08:37:47;5.00;77.30
83828;DHT22;73850;48.870;12.562;2023-11-18T08:40:14;5.10;77.00
83828;DHT22;73850;48.870;12.562;2023-11-18T08:42:51;5.10;76.10
83828;DHT22;73850;48.870;12.562;2023-11-18T08:45:18;5.10;75.30
83828;DHT22;73850;48.870;12.562;2023-11-18T08:47:45;5.10;74.70
83828;DHT22;73850;48.870;12.562;2023-11-18T08:50:13;5.30;74.20
83828;DHT22;73850;48.870;12.562;2023-11-18T08:52:39;5.30;74.30
83828;DHT22;73850;48.870;12.562;2023-11-18T08:55:11;5.30;74.10
83828;DHT22;73850;48.870;12.562;2023-11-18T08:57:47;5.50;74.90
83828;DHT22;73850;48.870;12.562;2023-11-18T09:00:27;5.60;74.60
83828;DHT22;73850;48.870;12.562;2023-11-18T09:03:12;5.70;74.30
83828;DHT22;73850;48.870;12.562;2023-11-18T09:05:45;5.80;73.70
83828;DHT22;73850;48.870;12.562;2023-11-18T09:08:42;5.90;72.80
83828;DHT22;73850;48.870;12.562;2023-11-18T09:11:13;6.00;72.80
83828;DHT22;73850;48.870;12.562;2023-11-18T09:13:43;6.20;72.40
83828;DHT22;73850;48.870;12.562;2023-11-18T09:16:11;6.00;71.60
83828;DHT22;73850;48.870;12.562;2023-11-18T09:18:39;6.10;72.50
83828;DHT22;73850;48.870;12.562;2023-11-18T09:21:06;6.30;72.20
83828;DHT22;73850;48.870;12.562;2023-11-18T09:23:33;6.40;70.90
83828;DHT22;73850;48.870;12.562;2023-11-18T09:26:03;6.50;70.00
83828;DHT22;73850;48.870;12.562;2023-11-18T09:28:34;6.90;70.50
83828;DHT22;73850;48.870;12.562;2023-11-18T09:31:04;7.00;69.20
83828;DHT22;73850;48.870;12.562;2023-11-18T09:33:31;7.00;68.80
83828;DHT22;73850;48.870;12.562;2023-11-18T09:36:03;7.40;68.30
83828;DHT22;73850;48.870;12.562;2023-11-18T09:38:36;7.20;68.00
83828;DHT22;73850;48.870;12.562;2023-11-18T09:41:03;7.40;68.10
83828;DHT22;73850;48.870;12.562;2023-11-18T09:43:36;7.40;68.10
83828;DHT22;73850;48.870;12.562;2023-11-18T09:46:09;7.50;68.30
83828;DHT22;73850;48.870;12.562;2023-11-18T09:48:48;7.70;68.20
83828;DHT22;73850;48.870;12.562;2023-11-18T09:51:38;7.70;69.00
83828;DHT22;73850;48.870;12.562;2023-11-18T09:54:27;8.10;68.40
83828;DHT22;73850;48.870;12.562;2023-11-18T10:02:12;8.30;67.40
83828;DHT22;73850;48.870;12.562;2023-11-18T10:04:38;8.20;66.90
83828;DHT22;73850;48.870;12.562;2023-11-18T10:07:06;8.20;66.00
83828;DHT22;73850;48.870;12.562;2023-11-18T10:09:32;8.20;65.40
83828;DHT22;73850;48.870;12.562;2023-11-18T10:12:05;8.40;64.90
83828;DHT22;73850;48.870;12.562;2023-11-18T10:14:36;8.60;65.20
83828;DHT22;73850;48.870;12.562;2023-11-18T10:17:08;9.50;63.90
83828;DHT22;73850;48.870;12.562;2023-11-18T10:22:25;9.70;57.60
83828;DHT22;73850;48.870;12.562;2023-11-18T10:24:52;9.90;59.00
83828;DHT22;73850;48.870;12.562;2023-11-18T10:27:29;9.60;57.70
83828;DHT22;73850;48.870;12.562;2023-11-18T10:29:56;9.20;60.30
83828;DHT22;73850;48.870;12.562;2023-11-18T10:32:22;8.90;60.80
83828;DHT22;73850;48.870;12.562;2023-11-18T10:34:56;8.50;61.60
83828;DHT22;73850;48.870;12.562;2023-11-18T10:37:22;8.30;63.00
83828;DHT22;73850;48.870;12.562;2023-11-18T10:39:48;7.80;63.40
83828;DHT22;73850;48.870;12.562;2023-11-18T10:42:18;7.80;65.20
83828;DHT22;73850;48.870;12.562;2023-11-18T10:44:57;8.10;64.20
83828;DHT22;73850;48.870;12.562;2023-11-18T10:47:26;7.80;64.10
83828;DHT22;73850;48.870;12.562;2023-11-18T10:49:55;7.70;65.80
83828;DHT22;73850;48.870;12.562;2023-11-18T10:52:24;7.90;65.20
83828;DHT22;73850;48.870;12.562;2023-11-18T10:54:59;8.10;64.70
83828;DHT22;73850;48.870;12.562;2023-11-18T10:57:32;8.10;65.00
83828;DHT22;73850;48.870;12.562;2023-11-18T11:00:03;8.50;63.20
83828;DHT22;73850;48.870;12.562;2023-11-18T11:02:32;8.60;62.60
83828;DHT22;73850;48.870;12.562;2023-11-18T11:05:05;8.60;62.30
83828;DHT22;73850;48.870;12.562;2023-11-18T11:07:35;8.70;61.20
83828;DHT22;73850;48.870;12.562;2023-11-18T11:10:03;9.00;60.00
83828;DHT22;73850;48.870;12.562;2023-11-18T11:12:34;9.60;59.70
83828;DHT22;73850;48.870;12.562;2023-11-18T11:15:12;10.40;64.50
83828;DHT22;73850;48.870;12.562;2023-11-18T11:17:51;11.00;60.60
83828;DHT22;73850;48.870;12.562;2023-11-18T11:20:22;11.50;54.90
83828;DHT22;73850;48.870;12.562;2023-11-18T11:25:41;10.80;54.90
83828;DHT22;73850;48.870;12.562;2023-11-18T11:28:17;10.60;55.50
83828;DHT22;73850;48.870;12.562;2023-11-18T11:31:20;10.50;55.10
83828;DHT22;73850;48.870;12.562;2023-11-18T11:34:02;10.40;54.80
83828;DHT22;73850;48.870;12.562;2023-11-18T11:36:42;10.50;55.50
83828;DHT22;73850;48.870;12.562;2023-11-18T11:39:12;11.00;55.20
83828;DHT22;73850;48.870;12.562;2023-11-18T11:41:45;11.30;53.90
83828;DHT22;73850;48.870;12.562;2023-11-18T11:44:14;12.10;53.30
83828;DHT22;73850;48.870;12.562;2023-11-18T11:46:40;13.90;49.50
83828;DHT22;73850;48.870;12.562;2023-11-18T11:49:09;14.50;45.40
83828;DHT22;73850;48.870;12.562;2023-11-18T11:52:07;13.30;46.50
83828;DHT22;73850;48.870;12.562;2023-11-18T11:54:45;13.00;46.80
83828;DHT22;73850;48.870;12.562;2023-11-18T11:57:11;13.00;47.70
83828;DHT22;73850;48.870;12.562;2023-11-18T12:02:15;12.30;50.30
83828;DHT22;73850;48.870;12.562;2023-11-18T12:04:51;12.60;50.90
83828;DHT22;73850;48.870;12.562;2023-11-18T12:07:21;13.30;48.50
83828;DHT22;73850;48.870;12.562;2023-11-18T12:09:49;13.70;47.30
83828;DHT22;73850;48.870;12.562;2023-11-18T12:12:22;14.00;46.40
83828;DHT22;73850;48.870;12.562;2023-11-18T12:14:52;13.20;46.10
83828;DHT22;73850;48.870;12.562;2023-11-18T12:17:21;13.60;47.70
83828;DHT22;73850;48.870;12.562;2023-11-18T12:19:50;14.00;46.40
83828;DHT22;73850;48.870;12.562;2023-11-18T12:22:22;12.90;48.10
83828;DHT22;73850;48.870;12.562;2023-11-18T12:27:54;12.00;49.30
83828;DHT22;73850;48.870;12.562;2023-11-18T12:33:00;10.90;54.10
83828;DHT22;73850;48.870;12.562;2023-11-18T12:42:08;10.50;57.20
83828;DHT22;73850;48.870;12.562;2023-11-18T12:47:28;10.40;56.10
83828;DHT22;73850;48.870;12.562;2023-11-18T12:49:55;10.20;56.60
83828;DHT22;73850;48.870;12.562;2023-11-18T12:52:22;11.60;55.10
83828;DHT22;73850;48.870;12.562;2023-11-18T12:54:48;13.50;50.40
83828;DHT22;73850;48.870;12.562;2023-11-18T12:57:20;14.30;45.70
83828;DHT22;73850;48.870;12.562;2023-11-18T12:59:49;14.10;45.30
83828;DHT22;73850;48.870;12.562;2023-11-18T13:02:15;13.80;47.40
83828;DHT22;73850;48.870;12.562;2023-11-18T13:04:45;12.80;48.60
83828;DHT22;73850;48.870;12.562;2023-11-18T13:07:14;11.70;50.70
83828;DHT22;73850;48.870;12.562;2023-11-18T13:09:40;11.30;53.50
83828;DHT22;73850;48.870;12.562;2023-11-18T13:12:08;11.00;54.30
83828;DHT22;73850;48.870;12.562;2023-11-18T13:14:34;11.10;54.50
83828;DHT22;73850;48.870;12.562;2023-11-18T13:17:14;10.40;56.00
83828;DHT22;73850;48.870;12.562;2023-11-18T13:19:42;10.00;58.00
83828;DHT22;73850;48.870;12.562;2023-11-18T13:22:10;9.90;59.20
83828;DHT22;73850;48.870;12.562;2023-11-18T13:24:43;9.70;59.50
83828;DHT22;73850;48.870;12.562;2023-11-18T13:27:16;9.50;60.20
83828;DHT22;73850;48.870;12.562;2023-11-18T13:29:47;9.70;59.90
83828;DHT22;73850;48.870;12.562;2023-11-18T13:32:18;9.60;60.30
83828;DHT22;73850;48.870;12.562;2023-11-18T13:34:48;9.40;61.10
83828;DHT22;73850;48.870;12.562;2023-11-18T13:37:14;9.40;61.20
83828;DHT22;73850;48.870;12.562;2023-11-18T13:39:43;9.70;61.60
83828;DHT22;73850;48.870;12.562;2023-11-18T13:42:19;9.90;61.20
83828;DHT22;73850;48.870;12.562;2023-11-18T13:44:46;10.50;59.60
83828;DHT22;73850;48.870;12.562;2023-11-18T13:47:16;11.30;57.60
83828;DHT22;73850;48.870;12.562;2023-11-18T13:49:42;12.60;54.70
83828;DHT22;73850;48.870;12.562;2023-11-18T13:52:09;13.80;50.60
83828;DHT22;73850;48.870;12.562;2023-11-18T13:54:40;14.20;48.30
83828;DHT22;73850;48.870;12.562;2023-11-18T13:57:08;14.30;48.10
83828;DHT22;73850;48.870;12.562;2023-11-18T13:59:35;14.40;46.30
83828;DHT22;73850;48.870;12.562;2023-11-18T14:02:01;13.90;48.30
83828;DHT22;73850;48.870;12.562;2023-11-18T14:04:30;15.20;46.00
83828;DHT22;73850;48.870;12.562;2023-11-18T14:06:59;15.20;45.10
83828;DHT22;73850;48.870;12.562;2023-11-18T14:09:26;14.70;45.50
83828;DHT22;73850;48.870;12.562;2023-11-18T14:11:53;14.60;45.30
83828;DHT22;73850;48.870;12.562;2023-11-18T14:14:21;14.10;47.40
83828;DHT22;73850;48.870;12.562;2023-11-18T14:16:46;14.00;47.50
83828;DHT22;73850;48.870;12.562;2023-11-18T14:19:12;14.80;45.90
83828;DHT22;73850;48.870;12.562;2023-11-18T14:21:39;14.00;47.60
83828;DHT22;73850;48.870;12.562;2023-11-18T14:24:09;14.00;47.40
83828;DHT22;73850;48.870;12.562;2023-11-18T14:26:37;13.30;48.70
83828;DHT22;73850;48.870;12.562;2023-11-18T14:29:06;12.80;50.00
83828;DHT22;73850;48.870;12.562;2023-11-18T14:31:32;12.20;51.90
83828;DHT22;73850;48.870;12.562;2023-11-18T14:33:59;11.60;53.90
83828;DHT22;73850;48.870;12.562;2023-11-18T14:36:26;10.90;56.00
83828;DHT22;73850;48.870;12.562;2023-11-18T14:38:52;10.50;57.70
83828;DHT22;73850;48.870;12.562;2023-11-18T14:41:18;10.20;58.90
83828;DHT22;73850;48.870;12.562;2023-11-18T14:43:46;9.80;60.20
83828;DHT22;73850;48.870;12.562;2023-11-18T14:46:11;9.50;61.70
83828;DHT22;73850;48.870;12.562;2023-11-18T14:48:38;9.40;62.60
83828;DHT22;73850;48.870;12.562;2023-11-18T14:51:04;8.90;63.20
83828;DHT22;73850;48.870;12.562;2023-11-18T14:53:30;8.60;64.40
83828;DHT22;73850;48.870;12.562;2023-11-18T14:55:56;8.20;65.90
83828;DHT22;73850;48.870;12.562;2023-11-18T14:58:23;7.80;67.30
83828;DHT22;73850;48.870;12.562;2023-11-18T15:00:49;7.60;68.50
83828;DHT22;73850;48.870;12.562;2023-11-18T15:03:14;7.30;69.80
83828;DHT22;73850;48.870;12.562;2023-11-18T15:05:41;7.10;70.90
83828;DHT22;73850;48.870;12.562;2023-11-18T15:08:08;6.80;72.50
83828;DHT22;73850;48.870;12.562;2023-11-18T15:10:34;6.70;75.30
83828;DHT22;73850;48.870;12.562;2023-11-18T15:13:02;6.50;75.10
83828;DHT22;73850;48.870;12.562;2023-11-18T15:15:29;6.30;75.70
83828;DHT22;73850;48.870;12.562;2023-11-18T15:18:00;6.10;76.50
83828;DHT22;73850;48.870;12.562;2023-11-18T15:20:29;6.00;77.70
83828;DHT22;73850;48.870;12.562;2023-11-18T15:22:55;5.90;78.60
83828;DHT22;73850;48.870;12.562;2023-11-18T15:25:21;5.80;78.90
83828;DHT22;73850;48.870;12.562;2023-11-18T15:27:47;5.70;79.50
83828;DHT22;73850;48.870;12.562;2023-11-18T15:30:16;5.60;79.80
83828;DHT22;73850;48.870;12.562;2023-11-18T15:32:44;5.50;80.20
83828;DHT22;73850;48.870;12.562;2023-11-18T15:35:11;5.40;81.00
83828;DHT22;73850;48.870;12.562;2023-11-18T15:37:39;5.40;81.60
83828;DHT22;73850;48.870;12.562;2023-11-18T15:40:07;5.30;81.80
83828;DHT22;73850;48.870;12.562;2023-11-18T15:42:40;5.20;82.30
83828;DHT22;73850;48.870;12.562;2023-11-18T15:45:15;5.10;82.60
83828;DHT22;73850;48.870;12.562;2023-11-18T15:47:41;5.00;82.90
83828;DHT22;73850;48.870;12.562;2023-11-18T15:50:12;4.90;83.30
83828;DHT22;73850;48.870;12.562;2023-11-18T15:52:40;4.80;83.70
83828;DHT22;73850;48.870;12.562;2023-11-18T15:55:06;4.80;84.00
83828;DHT22;73850;48.870;12.562;2023-11-18T15:57:42;4.70;84.20
83828;DHT22;73850;48.870;12.562;2023-11-18T16:00:09;4.70;84.40
83828;DHT22;73850;48.870;12.562;2023-11-18T16:02:45;4.70;84.30
83828;DHT22;73850;48.870;12.562;2023-11-18T16:05:15;4.60;84.70
83828;DHT22;73850;48.870;12.562;2023-11-18T16:07:45;4.80;87.40